sensor_id;sensor_type;location;lat;lon;timestamp;P1;durP1;ratioP1;P2;durP2;ratioP2
19183;SDS011;9724;51.194;6.856;2022-09-09T00:02:12;5.77;;;1.20;;
19183;SDS011;9724;51.194;6.856;2022-09-09T00:04:46;2.37;;;1.10;;
19183;SDS011;9724;51.194;6.856;2022-09-09T00:07:21;3.23;;;1.20;;
19183;SDS011;9724;51.194;6.856;2022-09-09T00:09:53;4.00;;;1.20;;
19183;SDS011;9724;51.194;6.856;2022-09-09T00:12:27;2.07;;;1.00;;
19183;SDS011;9724;51.194;6.856;2022-09-09T00:15:02;1.07;;;0.97;;
19183;SDS011;9724;51.194;6.856;2022-09-09T00:17:33;4.50;;;1.37;;
19183;SDS011;9724;51.194;6.856;2022-09-09T00:20:09;2.07;;;1.07;;
19183;SDS011;9724;51.194;6.856;2022-09-09T00:22:41;2.17;;;1.17;;
19183;SDS011;9724;51.194;6.856;2022-09-09T00:25:16;4.97;;;1.30;;
19183;SDS011;9724;51.194;6.856;2022-09-09T00:27:48;3.30;;;1.20;;
19183;SDS011;9724;51.194;6.856;2022-09-09T00:30:17;3.50;;;1.20;;
19183;SDS011;9724;51.194;6.856;2022-09-09T00:32:48;4.90;;;1.30;;
19183;SDS011;9724;51.194;6.856;2022-09-09T00:35:20;5.70;;;1.30;;
19183;SDS011;9724;51.194;6.856;2022-09-09T00:37:52;2.87;;;1.20;;
19183;SDS011;9724;51.194;6.856;2022-09-09T00:40:23;9.83;;;1.40;;
19183;SDS011;9724;51.194;6.856;2022-09-09T00:42:54;3.63;;;1.50;;
19183;SDS011;9724;51.194;6.856;2022-09-09T00:45:37;2.03;;;1.00;;
19183;SDS011;9724;51.194;6.856;2022-09-09T00:48:17;2.03;;;1.30;;
19183;SDS011;9724;51.194;6.856;2022-09-09T00:50:46;4.63;;;1.40;;
19183;SDS011;9724;51.194;6.856;2022-09-09T00:53:22;1.53;;;1.10;;
19183;SDS011;9724;51.194;6.856;2022-09-09T00:55:59;5.10;;;1.30;;
19183;SDS011;9724;51.194;6.856;2022-09-09T00:58:34;2.33;;;1.37;;
19183;SDS011;9724;51.194;6.856;2022-09-09T01:01:03;2.53;;;1.40;;
19183;SDS011;9724;51.194;6.856;2022-09-09T01:03:34;4.77;;;1.53;;
19183;SDS011;9724;51.194;6.856;2022-09-09T01:06:12;2.03;;;1.83;;
19183;SDS011;9724;51.194;6.856;2022-09-09T01:11:37;10.03;;;4.23;;
19183;SDS011;9724;51.194;6.856;2022-09-09T01:14:14;21.80;;;9.77;;
19183;SDS011;9724;51.194;6.856;2022-09-09T01:16:51;29.13;;;15.67;;
19183;SDS011;9724;51.194;6.856;2022-09-09T01:19:24;53.23;;;26.13;;
19183;SDS011;9724;51.194;6.856;2022-09-09T01:22:00;63.30;;;31.10;;
19183;SDS011;9724;51.194;6.856;2022-09-09T01:24:35;55.17;;;27.67;;
19183;SDS011;9724;51.194;6.856;2022-09-09T01:27:07;49.50;;;26.67;;
19183;SDS011;9724;51.194;6.856;2022-09-09T01:29:35;42.33;;;22.23;;
19183;SDS011;9724;51.194;6.856;2022-09-09T01:35:04;36.40;;;18.70;;
19183;SDS011;9724;51.194;6.856;2022-09-09T01:37:33;38.53;;;18.53;;
19183;SDS011;9724;51.194;6.856;2022-09-09T01:40:01;26.63;;;13.93;;
19183;SDS011;9724;51.194;6.856;2022-09-09T01:42:31;9.33;;;5.50;;
19183;SDS011;9724;51.194;6.856;2022-09-09T01:44:58;5.43;;;3.40;;
19183;SDS011;9724;51.194;6.856;2022-09-09T01:47:26;8.70;;;4.07;;
19183;SDS011;9724;51.194;6.856;2022-09-09T01:49:54;5.67;;;3.37;;
19183;SDS011;9724;51.194;6.856;2022-09-09T01:52:21;9.10;;;4.10;;
19183;SDS011;9724;51.194;6.856;2022-09-09T01:54:49;9.97;;;4.10;;
19183;SDS011;9724;51.194;6.856;2022-09-09T01:57:18;5.37;;;3.27;;
19183;SDS011;9724;51.194;6.856;2022-09-09T01:59:51;6.83;;;2.63;;
19183;SDS011;9724;51.194;6.856;2022-09-09T02:02:26;6.53;;;2.70;;
19183;SDS011;9724;51.194;6.856;2022-09-09T02:04:54;9.83;;;3.03;;
19183;SDS011;9724;51.194;6.856;2022-09-09T02:07:28;4.00;;;2.33;;
19183;SDS011;9724;51.194;6.856;2022-09-09T02:10:01;4.47;;;2.50;;
19183;SDS011;9724;51.194;6.856;2022-09-09T02:12:31;5.00;;;2.93;;
19183;SDS011;9724;51.194;6.856;2022-09-09T02:15:02;10.50;;;2.63;;
19183;SDS011;9724;51.194;6.856;2022-09-09T02:17:31;11.43;;;3.10;;
19183;SDS011;9724;51.194;6.856;2022-09-09T02:20:03;9.83;;;3.37;;
19183;SDS011;9724;51.194;6.856;2022-09-09T02:22:33;11.47;;;3.10;;
19183;SDS011;9724;51.194;6.856;2022-09-09T02:25:02;10.83;;;3.17;;
19183;SDS011;9724;51.194;6.856;2022-09-09T02:27:31;7.47;;;3.27;;
19183;SDS011;9724;51.194;6.856;2022-09-09T02:30:01;8.33;;;3.20;;
19183;SDS011;9724;51.194;6.856;2022-09-09T02:32:31;7.43;;;2.70;;
19183;SDS011;9724;51.194;6.856;2022-09-09T02:35:01;7.30;;;2.30;;
19183;SDS011;9724;51.194;6.856;2022-09-09T02:37:32;3.13;;;2.10;;
19183;SDS011;9724;51.194;6.856;2022-09-09T02:40:02;7.27;;;2.57;;
19183;SDS011;9724;51.194;6.856;2022-09-09T02:42:31;3.80;;;2.00;;
19183;SDS011;9724;51.194;6.856;2022-09-09T02:44:58;7.13;;;2.27;;
19183;SDS011;9724;51.194;6.856;2022-09-09T02:47:29;5.03;;;2.20;;
19183;SDS011;9724;51.194;6.856;2022-09-09T02:50:01;12.37;;;2.57;;
19183;SDS011;9724;51.194;6.856;2022-09-09T02:52:33;6.53;;;2.30;;
19183;SDS011;9724;51.194;6.856;2022-09-09T02:55:07;5.77;;;2.40;;
19183;SDS011;9724;51.194;6.856;2022-09-09T02:57:39;8.63;;;1.93;;
19183;SDS011;9724;51.194;6.856;2022-09-09T03:00:07;3.23;;;1.90;;
19183;SDS011;9724;51.194;6.856;2022-09-09T03:02:38;8.77;;;2.20;;
19183;SDS011;9724;51.194;6.856;2022-09-09T03:05:06;3.40;;;1.80;;
19183;SDS011;9724;51.194;6.856;2022-09-09T03:07:34;6.23;;;2.37;;
19183;SDS011;9724;51.194;6.856;2022-09-09T03:10:02;6.93;;;2.37;;
19183;SDS011;9724;51.194;6.856;2022-09-09T03:12:30;8.43;;;2.60;;
19183;SDS011;9724;51.194;6.856;2022-09-09T03:14:59;4.67;;;2.30;;
19183;SDS011;9724;51.194;6.856;2022-09-09T03:17:27;5.07;;;1.90;;
19183;SDS011;9724;51.194;6.856;2022-09-09T03:19:56;5.17;;;1.37;;
19183;SDS011;9724;51.194;6.856;2022-09-09T03:22:24;4.40;;;1.60;;
19183;SDS011;9724;51.194;6.856;2022-09-09T03:24:51;4.07;;;1.63;;
19183;SDS011;9724;51.194;6.856;2022-09-09T03:27:19;4.13;;;1.63;;
19183;SDS011;9724;51.194;6.856;2022-09-09T03:29:47;8.57;;;1.60;;
19183;SDS011;9724;51.194;6.856;2022-09-09T03:32:17;6.70;;;1.63;;
19183;SDS011;9724;51.194;6.856;2022-09-09T03:34:45;5.37;;;1.80;;
19183;SDS011;9724;51.194;6.856;2022-09-09T03:37:16;7.87;;;1.60;;
19183;SDS011;9724;51.194;6.856;2022-09-09T03:39:44;2.23;;;1.43;;
19183;SDS011;9724;51.194;6.856;2022-09-09T03:42:12;5.10;;;1.67;;
19183;SDS011;9724;51.194;6.856;2022-09-09T03:44:44;3.63;;;1.40;;
19183;SDS011;9724;51.194;6.856;2022-09-09T03:47:16;2.87;;;1.40;;
19183;SDS011;9724;51.194;6.856;2022-09-09T03:49:45;4.70;;;1.53;;
19183;SDS011;9724;51.194;6.856;2022-09-09T03:52:12;3.73;;;1.50;;
19183;SDS011;9724;51.194;6.856;2022-09-09T03:54:41;1.93;;;1.33;;
19183;SDS011;9724;51.194;6.856;2022-09-09T03:57:09;5.97;;;1.87;;
19183;SDS011;9724;51.194;6.856;2022-09-09T03:59:37;6.03;;;1.73;;
19183;SDS011;9724;51.194;6.856;2022-09-09T04:02:05;7.40;;;1.70;;
19183;SDS011;9724;51.194;6.856;2022-09-09T04:04:32;8.33;;;1.60;;
19183;SDS011;9724;51.194;6.856;2022-09-09T04:07:00;6.27;;;1.33;;
19183;SDS011;9724;51.194;6.856;2022-09-09T04:09:28;6.03;;;1.50;;
19183;SDS011;9724;51.194;6.856;2022-09-09T04:11:57;3.77;;;1.37;;
19183;SDS011;9724;51.194;6.856;2022-09-09T04:14:25;7.30;;;1.50;;
19183;SDS011;9724;51.194;6.856;2022-09-09T04:16:54;5.77;;;1.50;;
19183;SDS011;9724;51.194;6.856;2022-09-09T04:19:23;8.73;;;1.80;;
19183;SDS011;9724;51.194;6.856;2022-09-09T04:21:51;4.00;;;1.40;;
19183;SDS011;9724;51.194;6.856;2022-09-09T04:24:19;5.40;;;1.60;;
19183;SDS011;9724;51.194;6.856;2022-09-09T04:26:48;6.20;;;1.70;;
19183;SDS011;9724;51.194;6.856;2022-09-09T04:29:17;5.23;;;1.57;;
19183;SDS011;9724;51.194;6.856;2022-09-09T04:31:45;6.80;;;1.77;;
19183;SDS011;9724;51.194;6.856;2022-09-09T04:34:13;7.63;;;1.63;;
19183;SDS011;9724;51.194;6.856;2022-09-09T04:36:40;4.60;;;1.70;;
19183;SDS011;9724;51.194;6.856;2022-09-09T04:39:08;6.80;;;1.73;;
19183;SDS011;9724;51.194;6.856;2022-09-09T04:41:35;8.13;;;2.07;;
19183;SDS011;9724;51.194;6.856;2022-09-09T04:44:03;7.90;;;1.50;;
19183;SDS011;9724;51.194;6.856;2022-09-09T04:46:33;3.37;;;1.50;;
19183;SDS011;9724;51.194;6.856;2022-09-09T04:49:01;11.23;;;1.70;;
19183;SDS011;9724;51.194;6.856;2022-09-09T04:51:28;8.27;;;1.30;;
19183;SDS011;9724;51.194;6.856;2022-09-09T04:53:57;4.40;;;1.60;;
19183;SDS011;9724;51.194;6.856;2022-09-09T04:56:24;4.27;;;1.50;;
19183;SDS011;9724;51.194;6.856;2022-09-09T04:58:54;6.30;;;1.97;;
19183;SDS011;9724;51.194;6.856;2022-09-09T05:01:22;8.17;;;1.80;;
19183;SDS011;9724;51.194;6.856;2022-09-09T05:03:52;3.30;;;1.67;;
19183;SDS011;9724;51.194;6.856;2022-09-09T05:06:20;7.87;;;1.83;;
19183;SDS011;9724;51.194;6.856;2022-09-09T05:08:48;4.57;;;1.90;;
19183;SDS011;9724;51.194;6.856;2022-09-09T05:11:16;4.20;;;1.80;;
19183;SDS011;9724;51.194;6.856;2022-09-09T05:13:47;3.90;;;1.80;;
19183;SDS011;9724;51.194;6.856;2022-09-09T05:16:16;4.17;;;1.60;;
19183;SDS011;9724;51.194;6.856;2022-09-09T05:18:44;4.60;;;1.87;;
19183;SDS011;9724;51.194;6.856;2022-09-09T05:21:14;8.50;;;1.97;;
19183;SDS011;9724;51.194;6.856;2022-09-09T05:23:44;5.10;;;1.90;;
19183;SDS011;9724;51.194;6.856;2022-09-09T05:26:13;5.97;;;2.03;;
19183;SDS011;9724;51.194;6.856;2022-09-09T05:28:43;6.33;;;1.93;;
19183;SDS011;9724;51.194;6.856;2022-09-09T05:31:12;7.13;;;2.00;;
19183;SDS011;9724;51.194;6.856;2022-09-09T05:33:41;4.47;;;1.63;;
19183;SDS011;9724;51.194;6.856;2022-09-09T05:36:12;6.93;;;2.20;;
19183;SDS011;9724;51.194;6.856;2022-09-09T05:38:41;8.13;;;2.03;;
19183;SDS011;9724;51.194;6.856;2022-09-09T05:41:10;4.83;;;1.93;;
19183;SDS011;9724;51.194;6.856;2022-09-09T05:43:38;4.97;;;1.90;;
19183;SDS011;9724;51.194;6.856;2022-09-09T05:46:07;6.27;;;2.00;;
19183;SDS011;9724;51.194;6.856;2022-09-09T05:48:36;7.23;;;2.00;;
19183;SDS011;9724;51.194;6.856;2022-09-09T05:51:05;3.77;;;1.87;;
19183;SDS011;9724;51.194;6.856;2022-09-09T05:53:36;5.37;;;1.70;;
19183;SDS011;9724;51.194;6.856;2022-09-09T05:56:04;4.40;;;2.03;;
19183;SDS011;9724;51.194;6.856;2022-09-09T05:58:34;8.07;;;2.00;;
19183;SDS011;9724;51.194;6.856;2022-09-09T06:01:05;9.57;;;2.13;;
19183;SDS011;9724;51.194;6.856;2022-09-09T06:03:34;8.43;;;1.90;;
19183;SDS011;9724;51.194;6.856;2022-09-09T06:06:03;5.13;;;1.90;;
19183;SDS011;9724;51.194;6.856;2022-09-09T06:08:32;8.13;;;2.37;;
19183;SDS011;9724;51.194;6.856;2022-09-09T06:11:02;5.10;;;1.90;;
19183;SDS011;9724;51.194;6.856;2022-09-09T06:13:31;8.90;;;1.93;;
19183;SDS011;9724;51.194;6.856;2022-09-09T06:15:59;8.17;;;1.60;;
19183;SDS011;9724;51.194;6.856;2022-09-09T06:18:27;8.37;;;1.90;;
19183;SDS011;9724;51.194;6.856;2022-09-09T06:20:56;8.40;;;1.77;;
19183;SDS011;9724;51.194;6.856;2022-09-09T06:23:24;5.60;;;1.90;;
19183;SDS011;9724;51.194;6.856;2022-09-09T06:25:59;7.30;;;1.63;;
19183;SDS011;9724;51.194;6.856;2022-09-09T06:28:29;10.43;;;1.73;;
19183;SDS011;9724;51.194;6.856;2022-09-09T06:30:57;6.43;;;1.70;;
19183;SDS011;9724;51.194;6.856;2022-09-09T06:33:26;7.77;;;1.50;;
19183;SDS011;9724;51.194;6.856;2022-09-09T06:35:54;8.20;;;1.87;;
19183;SDS011;9724;51.194;6.856;2022-09-09T06:38:23;4.20;;;1.47;;
19183;SDS011;9724;51.194;6.856;2022-09-09T06:40:51;10.80;;;1.60;;
19183;SDS011;9724;51.194;6.856;2022-09-09T06:43:22;5.40;;;1.40;;
19183;SDS011;9724;51.194;6.856;2022-09-09T06:45:53;10.33;;;1.50;;
19183;SDS011;9724;51.194;6.856;2022-09-09T06:48:22;7.13;;;1.80;;
19183;SDS011;9724;51.194;6.856;2022-09-09T06:50:49;3.63;;;1.40;;
19183;SDS011;9724;51.194;6.856;2022-09-09T06:53:17;5.40;;;1.43;;
19183;SDS011;9724;51.194;6.856;2022-09-09T06:55:46;3.77;;;1.70;;
19183;SDS011;9724;51.194;6.856;2022-09-09T06:58:14;4.37;;;1.20;;
19183;SDS011;9724;51.194;6.856;2022-09-09T07:00:43;5.40;;;1.50;;
19183;SDS011;9724;51.194;6.856;2022-09-09T07:03:10;4.83;;;1.30;;
19183;SDS011;9724;51.194;6.856;2022-09-09T07:05:38;4.63;;;2.07;;
19183;SDS011;9724;51.194;6.856;2022-09-09T07:08:05;5.13;;;1.47;;
19183;SDS011;9724;51.194;6.856;2022-09-09T07:10:33;3.07;;;1.57;;
19183;SDS011;9724;51.194;6.856;2022-09-09T07:13:01;3.67;;;1.20;;
19183;SDS011;9724;51.194;6.856;2022-09-09T07:15:29;5.57;;;1.23;;
19183;SDS011;9724;51.194;6.856;2022-09-09T07:18:02;4.77;;;1.33;;
19183;SDS011;9724;51.194;6.856;2022-09-09T07:20:29;2.97;;;1.30;;
19183;SDS011;9724;51.194;6.856;2022-09-09T07:22:57;5.83;;;1.40;;
19183;SDS011;9724;51.194;6.856;2022-09-09T07:25:25;4.20;;;1.30;;
19183;SDS011;9724;51.194;6.856;2022-09-09T07:27:55;5.13;;;1.30;;
19183;SDS011;9724;51.194;6.856;2022-09-09T07:30:23;3.53;;;1.27;;
19183;SDS011;9724;51.194;6.856;2022-09-09T07:32:53;3.17;;;1.40;;
19183;SDS011;9724;51.194;6.856;2022-09-09T07:35:24;5.20;;;1.33;;
19183;SDS011;9724;51.194;6.856;2022-09-09T07:37:52;7.60;;;1.40;;
19183;SDS011;9724;51.194;6.856;2022-09-09T07:40:20;4.20;;;1.20;;
19183;SDS011;9724;51.194;6.856;2022-09-09T07:42:48;5.93;;;1.33;;
19183;SDS011;9724;51.194;6.856;2022-09-09T07:45:15;4.93;;;1.40;;
19183;SDS011;9724;51.194;6.856;2022-09-09T07:47:43;11.00;;;1.57;;
19183;SDS011;9724;51.194;6.856;2022-09-09T07:50:11;5.50;;;1.60;;
19183;SDS011;9724;51.194;6.856;2022-09-09T07:52:40;6.13;;;1.50;;
19183;SDS011;9724;51.194;6.856;2022-09-09T07:55:07;3.57;;;1.37;;
19183;SDS011;9724;51.194;6.856;2022-09-09T07:57:35;6.77;;;1.67;;
19183;SDS011;9724;51.194;6.856;2022-09-09T08:00:03;10.33;;;2.60;;
19183;SDS011;9724;51.194;6.856;2022-09-09T08:02:32;3.20;;;1.20;;
19183;SDS011;9724;51.194;6.856;2022-09-09T08:04:59;6.80;;;1.37;;
19183;SDS011;9724;51.194;6.856;2022-09-09T08:07:27;5.17;;;1.10;;
19183;SDS011;9724;51.194;6.856;2022-09-09T08:09:56;4.97;;;1.23;;
19183;SDS011;9724;51.194;6.856;2022-09-09T08:12:24;4.97;;;1.23;;
19183;SDS011;9724;51.194;6.856;2022-09-09T08:14:52;9.17;;;1.50;;
19183;SDS011;9724;51.194;6.856;2022-09-09T08:17:21;3.90;;;1.70;;
19183;SDS011;9724;51.194;6.856;2022-09-09T08:19:48;8.90;;;1.53;;
19183;SDS011;9724;51.194;6.856;2022-09-09T08:22:16;8.30;;;1.40;;
19183;SDS011;9724;51.194;6.856;2022-09-09T08:24:44;6.73;;;1.57;;
19183;SDS011;9724;51.194;6.856;2022-09-09T08:27:12;5.93;;;1.50;;
19183;SDS011;9724;51.194;6.856;2022-09-09T08:29:40;11.33;;;2.00;;
19183;SDS011;9724;51.194;6.856;2022-09-09T08:32:08;8.07;;;1.63;;
19183;SDS011;9724;51.194;6.856;2022-09-09T08:34:35;6.07;;;1.30;;
19183;SDS011;9724;51.194;6.856;2022-09-09T08:37:06;10.03;;;1.87;;
19183;SDS011;9724;51.194;6.856;2022-09-09T08:39:34;6.87;;;1.40;;
19183;SDS011;9724;51.194;6.856;2022-09-09T08:42:16;9.53;;;1.73;;
19183;SDS011;9724;51.194;6.856;2022-09-09T08:44:51;5.37;;;1.30;;
19183;SDS011;9724;51.194;6.856;2022-09-09T08:47:26;4.70;;;1.40;;
19183;SDS011;9724;51.194;6.856;2022-09-09T08:50:02;7.13;;;1.53;;
19183;SDS011;9724;51.194;6.856;2022-09-09T08:52:36;8.00;;;1.50;;
19183;SDS011;9724;51.194;6.856;2022-09-09T08:55:12;5.00;;;1.40;;
19183;SDS011;9724;51.194;6.856;2022-09-09T08:57:48;8.37;;;1.20;;
19183;SDS011;9724;51.194;6.856;2022-09-09T09:00:17;5.93;;;1.40;;
19183;SDS011;9724;51.194;6.856;2022-09-09T09:02:46;3.23;;;1.30;;
19183;SDS011;9724;51.194;6.856;2022-09-09T09:05:18;5.37;;;1.57;;
19183;SDS011;9724;51.194;6.856;2022-09-09T09:07:51;9.33;;;1.40;;
19183;SDS011;9724;51.194;6.856;2022-09-09T09:10:27;6.67;;;1.60;;
19183;SDS011;9724;51.194;6.856;2022-09-09T09:13:11;13.20;;;1.50;;
19183;SDS011;9724;51.194;6.856;2022-09-09T09:15:43;12.27;;;1.83;;
19183;SDS011;9724;51.194;6.856;2022-09-09T09:18:12;6.07;;;1.23;;
19183;SDS011;9724;51.194;6.856;2022-09-09T09:20:42;3.13;;;1.33;;
19183;SDS011;9724;51.194;6.856;2022-09-09T09:23:17;6.23;;;1.43;;
19183;SDS011;9724;51.194;6.856;2022-09-09T09:25:49;6.57;;;1.40;;
19183;SDS011;9724;51.194;6.856;2022-09-09T09:28:20;2.93;;;1.40;;
19183;SDS011;9724;51.194;6.856;2022-09-09T09:30:52;5.80;;;1.47;;
19183;SDS011;9724;51.194;6.856;2022-09-09T09:33:21;5.37;;;1.50;;
19183;SDS011;9724;51.194;6.856;2022-09-09T09:35:51;4.50;;;1.57;;
19183;SDS011;9724;51.194;6.856;2022-09-09T09:38:20;7.13;;;1.33;;
19183;SDS011;9724;51.194;6.856;2022-09-09T09:41:08;2.93;;;1.07;;
19183;SDS011;9724;51.194;6.856;2022-09-09T09:43:39;3.33;;;1.03;;
19183;SDS011;9724;51.194;6.856;2022-09-09T09:46:17;3.60;;;0.97;;
19183;SDS011;9724;51.194;6.856;2022-09-09T09:48:55;2.70;;;1.10;;
19183;SDS011;9724;51.194;6.856;2022-09-09T09:51:24;1.93;;;1.13;;
19183;SDS011;9724;51.194;6.856;2022-09-09T09:53:52;4.43;;;1.47;;
19183;SDS011;9724;51.194;6.856;2022-09-09T09:56:26;3.43;;;1.20;;
19183;SDS011;9724;51.194;6.856;2022-09-09T09:58:56;3.27;;;1.10;;
19183;SDS011;9724;51.194;6.856;2022-09-09T10:01:25;4.77;;;0.93;;
19183;SDS011;9724;51.194;6.856;2022-09-09T10:03:57;4.10;;;1.23;;
19183;SDS011;9724;51.194;6.856;2022-09-09T10:06:31;9.10;;;1.20;;
19183;SDS011;9724;51.194;6.856;2022-09-09T10:09:00;4.10;;;1.03;;
19183;SDS011;9724;51.194;6.856;2022-09-09T10:11:30;5.80;;;1.23;;
19183;SDS011;9724;51.194;6.856;2022-09-09T10:14:08;1.63;;;1.30;;
19183;SDS011;9724;51.194;6.856;2022-09-09T10:16:46;2.00;;;1.00;;
19183;SDS011;9724;51.194;6.856;2022-09-09T10:19:27;3.20;;;1.10;;
19183;SDS011;9724;51.194;6.856;2022-09-09T10:22:05;4.20;;;1.40;;
19183;SDS011;9724;51.194;6.856;2022-09-09T10:24:42;2.87;;;1.00;;
19183;SDS011;9724;51.194;6.856;2022-09-09T10:27:38;4.20;;;1.17;;
19183;SDS011;9724;51.194;6.856;2022-09-09T10:30:16;2.93;;;1.30;;
19183;SDS011;9724;51.194;6.856;2022-09-09T10:32:46;4.37;;;1.27;;
19183;SDS011;9724;51.194;6.856;2022-09-09T10:38:16;1.77;;;0.93;;
19183;SDS011;9724;51.194;6.856;2022-09-09T10:40:59;2.13;;;1.10;;
19183;SDS011;9724;51.194;6.856;2022-09-09T10:43:37;5.67;;;0.97;;
19183;SDS011;9724;51.194;6.856;2022-09-09T10:46:14;4.17;;;1.13;;
19183;SDS011;9724;51.194;6.856;2022-09-09T10:48:53;2.03;;;0.97;;
19183;SDS011;9724;51.194;6.856;2022-09-09T10:51:28;2.67;;;0.80;;
19183;SDS011;9724;51.194;6.856;2022-09-09T10:54:07;2.00;;;0.80;;
19183;SDS011;9724;51.194;6.856;2022-09-09T10:56:40;4.20;;;1.00;;
19183;SDS011;9724;51.194;6.856;2022-09-09T10:59:10;1.40;;;0.90;;
19183;SDS011;9724;51.194;6.856;2022-09-09T11:01:41;1.83;;;1.00;;
19183;SDS011;9724;51.194;6.856;2022-09-09T11:04:13;5.97;;;1.23;;
19183;SDS011;9724;51.194;6.856;2022-09-09T11:06:44;2.70;;;1.10;;
19183;SDS011;9724;51.194;6.856;2022-09-09T11:09:15;5.70;;;1.00;;
19183;SDS011;9724;51.194;6.856;2022-09-09T11:11:45;1.93;;;0.80;;
19183;SDS011;9724;51.194;6.856;2022-09-09T11:14:18;4.43;;;0.90;;
19183;SDS011;9724;51.194;6.856;2022-09-09T11:16:49;3.20;;;1.23;;
19183;SDS011;9724;51.194;6.856;2022-09-09T11:19:19;1.50;;;0.97;;
19183;SDS011;9724;51.194;6.856;2022-09-09T11:21:50;3.33;;;1.10;;
19183;SDS011;9724;51.194;6.856;2022-09-09T11:24:22;7.13;;;1.20;;
19183;SDS011;9724;51.194;6.856;2022-09-09T11:26:53;1.80;;;1.10;;
19183;SDS011;9724;51.194;6.856;2022-09-09T11:29:43;4.27;;;1.47;;
19183;SDS011;9724;51.194;6.856;2022-09-09T11:32:24;6.70;;;1.00;;
19183;SDS011;9724;51.194;6.856;2022-09-09T11:35:14;5.60;;;1.00;;
19183;SDS011;9724;51.194;6.856;2022-09-09T11:37:54;6.20;;;0.80;;
19183;SDS011;9724;51.194;6.856;2022-09-09T11:40:39;4.50;;;1.03;;
19183;SDS011;9724;51.194;6.856;2022-09-09T11:43:09;5.10;;;1.10;;
19183;SDS011;9724;51.194;6.856;2022-09-09T11:45:39;5.10;;;0.90;;
19183;SDS011;9724;51.194;6.856;2022-09-09T11:48:22;3.70;;;1.10;;
19183;SDS011;9724;51.194;6.856;2022-09-09T11:50:59;5.27;;;1.10;;
19183;SDS011;9724;51.194;6.856;2022-09-09T11:53:29;2.10;;;0.80;;
19183;SDS011;9724;51.194;6.856;2022-09-09T11:56:00;6.43;;;1.50;;
19183;SDS011;9724;51.194;6.856;2022-09-09T11:58:30;3.03;;;1.03;;
19183;SDS011;9724;51.194;6.856;2022-09-09T12:01:34;2.70;;;1.27;;
19183;SDS011;9724;51.194;6.856;2022-09-09T12:04:12;3.40;;;1.00;;
19183;SDS011;9724;51.194;6.856;2022-09-09T12:06:48;8.23;;;1.43;;
19183;SDS011;9724;51.194;6.856;2022-09-09T12:09:22;5.53;;;1.20;;
19183;SDS011;9724;51.194;6.856;2022-09-09T12:12:04;2.00;;;1.37;;
19183;SDS011;9724;51.194;6.856;2022-09-09T12:14:37;1.37;;;1.27;;
19183;SDS011;9724;51.194;6.856;2022-09-09T12:17:09;2.30;;;1.10;;
19183;SDS011;9724;51.194;6.856;2022-09-09T12:19:39;2.67;;;1.20;;
19183;SDS011;9724;51.194;6.856;2022-09-09T12:22:07;1.27;;;1.10;;
19183;SDS011;9724;51.194;6.856;2022-09-09T12:24:42;3.77;;;1.30;;
19183;SDS011;9724;51.194;6.856;2022-09-09T12:27:14;3.80;;;1.67;;
19183;SDS011;9724;51.194;6.856;2022-09-09T12:29:48;4.17;;;1.43;;
19183;SDS011;9724;51.194;6.856;2022-09-09T12:32:19;5.33;;;1.90;;
19183;SDS011;9724;51.194;6.856;2022-09-09T12:34:51;7.10;;;1.87;;
19183;SDS011;9724;51.194;6.856;2022-09-09T12:37:23;4.13;;;1.50;;
19183;SDS011;9724;51.194;6.856;2022-09-09T12:39:54;3.87;;;1.50;;
19183;SDS011;9724;51.194;6.856;2022-09-09T12:42:23;6.30;;;1.47;;
19183;SDS011;9724;51.194;6.856;2022-09-09T12:44:55;4.50;;;1.57;;
19183;SDS011;9724;51.194;6.856;2022-09-09T12:47:25;3.80;;;1.47;;
19183;SDS011;9724;51.194;6.856;2022-09-09T12:49:58;5.37;;;1.70;;
19183;SDS011;9724;51.194;6.856;2022-09-09T12:52:28;4.73;;;1.70;;
19183;SDS011;9724;51.194;6.856;2022-09-09T12:54:58;4.83;;;1.40;;
19183;SDS011;9724;51.194;6.856;2022-09-09T12:57:29;3.40;;;1.40;;
19183;SDS011;9724;51.194;6.856;2022-09-09T13:00:04;2.70;;;1.20;;
19183;SDS011;9724;51.194;6.856;2022-09-09T13:02:45;9.63;;;1.93;;
19183;SDS011;9724;51.194;6.856;2022-09-09T13:05:16;20.13;;;3.00;;
19183;SDS011;9724;51.194;6.856;2022-09-09T13:07:46;10.33;;;2.10;;
19183;SDS011;9724;51.194;6.856;2022-09-09T13:10:15;10.93;;;1.90;;
19183;SDS011;9724;51.194;6.856;2022-09-09T13:13:02;7.30;;;1.20;;
19183;SDS011;9724;51.194;6.856;2022-09-09T13:15:31;3.80;;;1.10;;
19183;SDS011;9724;51.194;6.856;2022-09-09T13:17:59;4.43;;;1.60;;
19183;SDS011;9724;51.194;6.856;2022-09-09T13:20:29;2.73;;;1.17;;
19183;SDS011;9724;51.194;6.856;2022-09-09T13:22:57;7.00;;;1.30;;
19183;SDS011;9724;51.194;6.856;2022-09-09T13:25:25;3.07;;;1.27;;
19183;SDS011;9724;51.194;6.856;2022-09-09T13:27:55;4.40;;;1.47;;
19183;SDS011;9724;51.194;6.856;2022-09-09T13:30:25;5.37;;;1.50;;
19183;SDS011;9724;51.194;6.856;2022-09-09T13:33:03;2.10;;;1.10;;
19183;SDS011;9724;51.194;6.856;2022-09-09T13:35:47;6.77;;;1.87;;
19183;SDS011;9724;51.194;6.856;2022-09-09T13:38:17;5.87;;;1.70;;
19183;SDS011;9724;51.194;6.856;2022-09-09T13:40:52;2.97;;;1.67;;
19183;SDS011;9724;51.194;6.856;2022-09-09T13:43:23;4.13;;;1.47;;
19183;SDS011;9724;51.194;6.856;2022-09-09T13:45:53;4.23;;;1.60;;
19183;SDS011;9724;51.194;6.856;2022-09-09T13:48:22;3.10;;;1.27;;
19183;SDS011;9724;51.194;6.856;2022-09-09T13:50:59;7.77;;;1.30;;
19183;SDS011;9724;51.194;6.856;2022-09-09T13:53:29;5.00;;;1.90;;
19183;SDS011;9724;51.194;6.856;2022-09-09T13:55:57;4.47;;;2.00;;
19183;SDS011;9724;51.194;6.856;2022-09-09T13:58:25;4.23;;;1.77;;
19183;SDS011;9724;51.194;6.856;2022-09-09T14:00:52;3.37;;;1.50;;
19183;SDS011;9724;51.194;6.856;2022-09-09T14:03:20;6.63;;;1.90;;
19183;SDS011;9724;51.194;6.856;2022-09-09T14:05:48;3.03;;;1.60;;
19183;SDS011;9724;51.194;6.856;2022-09-09T14:08:21;5.20;;;1.57;;
19183;SDS011;9724;51.194;6.856;2022-09-09T14:10:51;4.87;;;1.87;;
19183;SDS011;9724;51.194;6.856;2022-09-09T14:13:22;4.33;;;1.47;;
19183;SDS011;9724;51.194;6.856;2022-09-09T14:15:49;3.37;;;1.33;;
19183;SDS011;9724;51.194;6.856;2022-09-09T14:18:17;3.23;;;1.30;;
19183;SDS011;9724;51.194;6.856;2022-09-09T14:20:44;4.50;;;1.10;;
19183;SDS011;9724;51.194;6.856;2022-09-09T14:23:12;4.23;;;1.30;;
19183;SDS011;9724;51.194;6.856;2022-09-09T14:25:43;4.47;;;1.40;;
19183;SDS011;9724;51.194;6.856;2022-09-09T14:28:11;3.73;;;1.20;;
19183;SDS011;9724;51.194;6.856;2022-09-09T14:30:39;1.20;;;1.10;;
19183;SDS011;9724;51.194;6.856;2022-09-09T14:33:08;3.23;;;1.00;;
19183;SDS011;9724;51.194;6.856;2022-09-09T14:35:38;1.67;;;0.83;;
19183;SDS011;9724;51.194;6.856;2022-09-09T14:38:07;3.03;;;1.07;;
19183;SDS011;9724;51.194;6.856;2022-09-09T14:40:35;1.97;;;0.80;;
19183;SDS011;9724;51.194;6.856;2022-09-09T14:43:05;6.30;;;1.07;;
19183;SDS011;9724;51.194;6.856;2022-09-09T14:45:33;1.13;;;0.63;;
19183;SDS011;9724;51.194;6.856;2022-09-09T14:48:03;4.30;;;0.80;;
19183;SDS011;9724;51.194;6.856;2022-09-09T14:50:31;12.50;;;1.53;;
19183;SDS011;9724;51.194;6.856;2022-09-09T14:52:58;4.47;;;0.80;;
19183;SDS011;9724;51.194;6.856;2022-09-09T14:55:26;4.70;;;1.03;;
19183;SDS011;9724;51.194;6.856;2022-09-09T14:57:55;6.67;;;1.20;;
19183;SDS011;9724;51.194;6.856;2022-09-09T15:00:24;5.43;;;1.00;;
19183;SDS011;9724;51.194;6.856;2022-09-09T15:02:52;7.53;;;0.80;;
19183;SDS011;9724;51.194;6.856;2022-09-09T15:05:20;0.80;;;0.60;;
19183;SDS011;9724;51.194;6.856;2022-09-09T15:07:48;2.93;;;0.70;;
19183;SDS011;9724;51.194;6.856;2022-09-09T15:10:16;1.63;;;0.87;;
19183;SDS011;9724;51.194;6.856;2022-09-09T15:12:44;1.30;;;0.50;;
19183;SDS011;9724;51.194;6.856;2022-09-09T15:15:11;2.90;;;0.60;;
19183;SDS011;9724;51.194;6.856;2022-09-09T15:17:41;1.30;;;0.70;;
19183;SDS011;9724;51.194;6.856;2022-09-09T15:20:09;2.70;;;0.83;;
19183;SDS011;9724;51.194;6.856;2022-09-09T15:22:36;3.30;;;0.73;;
19183;SDS011;9724;51.194;6.856;2022-09-09T15:25:05;5.10;;;1.20;;
19183;SDS011;9724;51.194;6.856;2022-09-09T15:27:33;3.83;;;0.70;;
19183;SDS011;9724;51.194;6.856;2022-09-09T15:30:01;3.60;;;1.00;;
19183;SDS011;9724;51.194;6.856;2022-09-09T15:32:28;3.17;;;2.33;;